sensor_id;sensor_type;location;lat;lon;timestamp;P1;durP1;ratioP1;P2;durP2;ratioP2
22223;SDS011;11281;52.194;21.006;2022-07-29T00:00:20;2.72;;;2.22;;
22223;SDS011;11281;52.194;21.006;2022-07-29T00:04:22;3.72;;;1.90;;
22223;SDS011;11281;52.194;21.006;2022-07-29T00:08:24;3.20;;;2.30;;
22223;SDS011;11281;52.194;21.006;2022-07-29T00:12:26;2.45;;;2.03;;
22223;SDS011;11281;52.194;21.006;2022-07-29T00:16:28;3.75;;;2.00;;
22223;SDS011;11281;52.194;21.006;2022-07-29T00:20:30;3.05;;;2.00;;
22223;SDS011;11281;52.194;21.006;2022-07-29T00:24:32;2.90;;;2.28;;
22223;SDS011;11281;52.194;21.006;2022-07-29T00:28:33;4.38;;;2.28;;
22223;SDS011;11281;52.194;21.006;2022-07-29T00:32:35;3.83;;;2.17;;
22223;SDS011;11281;52.194;21.006;2022-07-29T00:36:37;3.20;;;2.28;;
22223;SDS011;11281;52.194;21.006;2022-07-29T00:40:40;4.85;;;2.40;;
22223;SDS011;11281;52.194;21.006;2022-07-29T00:44:42;2.50;;;2.15;;
22223;SDS011;11281;52.194;21.006;2022-07-29T00:48:44;5.40;;;2.30;;
22223;SDS011;11281;52.194;21.006;2022-07-29T00:52:47;3.35;;;2.00;;
22223;SDS011;11281;52.194;21.006;2022-07-29T00:56:49;4.53;;;1.88;;
22223;SDS011;11281;52.194;21.006;2022-07-29T01:00:50;3.60;;;1.98;;
22223;SDS011;11281;52.194;21.006;2022-07-29T01:04:53;4.90;;;1.90;;
22223;SDS011;11281;52.194;21.006;2022-07-29T01:08:55;3.33;;;2.00;;
22223;SDS011;11281;52.194;21.006;2022-07-29T01:12:59;1.95;;;1.70;;
22223;SDS011;11281;52.194;21.006;2022-07-29T01:17:08;5.53;;;1.90;;
22223;SDS011;11281;52.194;21.006;2022-07-29T01:29:50;3.13;;;1.90;;
22223;SDS011;11281;52.194;21.006;2022-07-29T01:33:58;5.03;;;2.10;;
22223;SDS011;11281;52.194;21.006;2022-07-29T01:47:05;2.95;;;2.10;;
22223;SDS011;11281;52.194;21.006;2022-07-29T01:51:36;3.15;;;1.80;;
22223;SDS011;11281;52.194;21.006;2022-07-29T01:55:46;4.15;;;2.15;;
22223;SDS011;11281;52.194;21.006;2022-07-29T01:59:49;4.80;;;2.05;;
22223;SDS011;11281;52.194;21.006;2022-07-29T02:03:52;4.75;;;2.08;;
22223;SDS011;11281;52.194;21.006;2022-07-29T02:07:55;4.22;;;2.10;;
22223;SDS011;11281;52.194;21.006;2022-07-29T02:12:00;5.30;;;1.90;;
22223;SDS011;11281;52.194;21.006;2022-07-29T02:16:05;3.88;;;1.70;;
22223;SDS011;11281;52.194;21.006;2022-07-29T02:20:12;2.72;;;1.70;;
22223;SDS011;11281;52.194;21.006;2022-07-29T02:24:14;4.43;;;2.15;;
22223;SDS011;11281;52.194;21.006;2022-07-29T02:28:19;2.42;;;1.65;;
22223;SDS011;11281;52.194;21.006;2022-07-29T02:32:23;3.30;;;2.00;;
22223;SDS011;11281;52.194;21.006;2022-07-29T02:36:27;2.38;;;1.35;;
22223;SDS011;11281;52.194;21.006;2022-07-29T02:40:31;4.50;;;1.65;;
22223;SDS011;11281;52.194;21.006;2022-07-29T02:44:35;2.10;;;1.33;;
22223;SDS011;11281;52.194;21.006;2022-07-29T02:48:38;1.77;;;1.60;;
22223;SDS011;11281;52.194;21.006;2022-07-29T02:52:57;1.80;;;1.70;;
22223;SDS011;11281;52.194;21.006;2022-07-29T02:57:06;3.72;;;1.77;;
22223;SDS011;11281;52.194;21.006;2022-07-29T03:01:21;2.10;;;1.80;;
22223;SDS011;11281;52.194;21.006;2022-07-29T03:05:27;2.00;;;1.85;;
22223;SDS011;11281;52.194;21.006;2022-07-29T03:09:30;1.77;;;1.67;;
22223;SDS011;11281;52.194;21.006;2022-07-29T03:13:32;2.95;;;1.85;;
22223;SDS011;11281;52.194;21.006;2022-07-29T03:17:36;5.20;;;2.47;;
22223;SDS011;11281;52.194;21.006;2022-07-29T03:21:40;3.58;;;2.13;;
22223;SDS011;11281;52.194;21.006;2022-07-29T03:25:41;5.50;;;2.30;;
22223;SDS011;11281;52.194;21.006;2022-07-29T03:29:44;2.92;;;2.42;;
22223;SDS011;11281;52.194;21.006;2022-07-29T03:33:46;4.03;;;2.50;;
22223;SDS011;11281;52.194;21.006;2022-07-29T03:37:48;3.90;;;2.40;;
22223;SDS011;11281;52.194;21.006;2022-07-29T03:41:52;4.97;;;1.90;;
22223;SDS011;11281;52.194;21.006;2022-07-29T03:45:56;2.45;;;1.83;;
22223;SDS011;11281;52.194;21.006;2022-07-29T03:50:04;2.75;;;1.90;;
22223;SDS011;11281;52.194;21.006;2022-07-29T03:54:08;2.47;;;1.70;;
22223;SDS011;11281;52.194;21.006;2022-07-29T03:58:10;1.60;;;1.50;;
22223;SDS011;11281;52.194;21.006;2022-07-29T04:02:14;2.00;;;1.65;;
22223;SDS011;11281;52.194;21.006;2022-07-29T04:06:16;1.73;;;1.55;;
22223;SDS011;11281;52.194;21.006;2022-07-29T04:10:17;1.35;;;1.25;;
22223;SDS011;11281;52.194;21.006;2022-07-29T04:14:19;1.58;;;1.25;;
22223;SDS011;11281;52.194;21.006;2022-07-29T04:18:21;5.63;;;1.40;;
22223;SDS011;11281;52.194;21.006;2022-07-29T04:22:23;1.75;;;1.65;;
22223;SDS011;11281;52.194;21.006;2022-07-29T04:26:25;1.50;;;1.40;;
22223;SDS011;11281;52.194;21.006;2022-07-29T04:30:39;2.03;;;1.25;;
22223;SDS011;11281;52.194;21.006;2022-07-29T04:34:41;3.13;;;1.27;;
22223;SDS011;11281;52.194;21.006;2022-07-29T04:38:43;2.22;;;1.23;;
22223;SDS011;11281;52.194;21.006;2022-07-29T04:42:44;2.10;;;1.40;;
22223;SDS011;11281;52.194;21.006;2022-07-29T04:46:47;1.17;;;0.98;;
22223;SDS011;11281;52.194;21.006;2022-07-29T04:50:48;1.33;;;1.10;;
22223;SDS011;11281;52.194;21.006;2022-07-29T04:54:50;2.70;;;1.00;;
22223;SDS011;11281;52.194;21.006;2022-07-29T04:58:52;1.55;;;1.05;;
22223;SDS011;11281;52.194;21.006;2022-07-29T05:02:54;1.70;;;1.10;;
22223;SDS011;11281;52.194;21.006;2022-07-29T05:06:56;3.78;;;1.60;;
22223;SDS011;11281;52.194;21.006;2022-07-29T05:10:57;3.33;;;1.20;;
22223;SDS011;11281;52.194;21.006;2022-07-29T05:14:59;2.58;;;1.52;;
22223;SDS011;11281;52.194;21.006;2022-07-29T05:19:01;1.80;;;0.90;;
22223;SDS011;11281;52.194;21.006;2022-07-29T05:23:03;3.08;;;1.20;;
22223;SDS011;11281;52.194;21.006;2022-07-29T05:27:04;2.30;;;0.93;;
22223;SDS011;11281;52.194;21.006;2022-07-29T05:31:06;2.85;;;1.17;;
22223;SDS011;11281;52.194;21.006;2022-07-29T05:35:08;3.30;;;1.17;;
22223;SDS011;11281;52.194;21.006;2022-07-29T05:39:10;2.15;;;1.25;;
22223;SDS011;11281;52.194;21.006;2022-07-29T05:43:13;2.45;;;1.27;;
22223;SDS011;11281;52.194;21.006;2022-07-29T05:47:15;2.05;;;1.10;;
22223;SDS011;11281;52.194;21.006;2022-07-29T05:51:17;1.65;;;1.23;;
22223;SDS011;11281;52.194;21.006;2022-07-29T05:55:19;1.10;;;1.00;;
22223;SDS011;11281;52.194;21.006;2022-07-29T05:59:20;1.67;;;1.13;;
22223;SDS011;11281;52.194;21.006;2022-07-29T06:03:22;1.92;;;0.98;;
22223;SDS011;11281;52.194;21.006;2022-07-29T06:07:23;3.50;;;0.90;;
22223;SDS011;11281;52.194;21.006;2022-07-29T06:11:25;1.42;;;0.95;;
22223;SDS011;11281;52.194;21.006;2022-07-29T06:15:27;2.40;;;0.98;;
22223;SDS011;11281;52.194;21.006;2022-07-29T06:19:29;5.45;;;1.13;;
22223;SDS011;11281;52.194;21.006;2022-07-29T06:23:31;1.52;;;0.80;;
22223;SDS011;11281;52.194;21.006;2022-07-29T06:27:32;2.33;;;1.00;;
22223;SDS011;11281;52.194;21.006;2022-07-29T06:31:34;1.27;;;0.65;;
22223;SDS011;11281;52.194;21.006;2022-07-29T06:35:35;2.10;;;0.90;;
22223;SDS011;11281;52.194;21.006;2022-07-29T06:39:37;1.73;;;1.00;;
22223;SDS011;11281;52.194;21.006;2022-07-29T06:43:39;3.20;;;0.98;;
22223;SDS011;11281;52.194;21.006;2022-07-29T06:47:42;1.80;;;0.80;;
22223;SDS011;11281;52.194;21.006;2022-07-29T06:51:44;1.10;;;0.80;;
22223;SDS011;11281;52.194;21.006;2022-07-29T06:55:46;1.80;;;0.93;;
22223;SDS011;11281;52.194;21.006;2022-07-29T06:59:48;0.90;;;0.75;;
22223;SDS011;11281;52.194;21.006;2022-07-29T07:03:50;3.80;;;0.93;;
22223;SDS011;11281;52.194;21.006;2022-07-29T07:07:52;1.83;;;0.80;;
22223;SDS011;11281;52.194;21.006;2022-07-29T07:11:53;1.00;;;0.70;;
22223;SDS011;11281;52.194;21.006;2022-07-29T07:15:55;1.90;;;1.00;;
22223;SDS011;11281;52.194;21.006;2022-07-29T07:19:56;1.75;;;0.80;;
22223;SDS011;11281;52.194;21.006;2022-07-29T07:23:58;3.38;;;0.90;;
22223;SDS011;11281;52.194;21.006;2022-07-29T07:28:00;1.15;;;0.90;;
22223;SDS011;11281;52.194;21.006;2022-07-29T07:32:02;0.98;;;0.75;;
22223;SDS011;11281;52.194;21.006;2022-07-29T07:36:04;2.50;;;1.10;;
22223;SDS011;11281;52.194;21.006;2022-07-29T07:40:06;2.45;;;0.98;;
22223;SDS011;11281;52.194;21.006;2022-07-29T07:44:10;3.55;;;1.30;;
22223;SDS011;11281;52.194;21.006;2022-07-29T07:48:11;2.03;;;0.80;;
22223;SDS011;11281;52.194;21.006;2022-07-29T07:52:14;1.20;;;0.60;;
22223;SDS011;11281;52.194;21.006;2022-07-29T07:56:17;2.38;;;1.00;;
22223;SDS011;11281;52.194;21.006;2022-07-29T08:00:19;2.10;;;0.75;;
22223;SDS011;11281;52.194;21.006;2022-07-29T08:04:22;1.80;;;0.80;;
22223;SDS011;11281;52.194;21.006;2022-07-29T08:08:25;1.55;;;0.70;;
22223;SDS011;11281;52.194;21.006;2022-07-29T08:12:26;2.45;;;0.90;;
22223;SDS011;11281;52.194;21.006;2022-07-29T08:16:28;2.45;;;0.82;;
22223;SDS011;11281;52.194;21.006;2022-07-29T08:20:30;1.45;;;0.80;;
22223;SDS011;11281;52.194;21.006;2022-07-29T08:24:34;2.08;;;1.00;;
22223;SDS011;11281;52.194;21.006;2022-07-29T08:28:47;1.13;;;0.70;;
22223;SDS011;11281;52.194;21.006;2022-07-29T08:32:51;0.70;;;0.70;;
22223;SDS011;11281;52.194;21.006;2022-07-29T08:36:54;1.77;;;0.80;;
22223;SDS011;11281;52.194;21.006;2022-07-29T08:40:56;1.27;;;0.80;;
22223;SDS011;11281;52.194;21.006;2022-07-29T08:44:59;2.05;;;0.80;;
22223;SDS011;11281;52.194;21.006;2022-07-29T08:49:01;4.75;;;1.35;;
22223;SDS011;11281;52.194;21.006;2022-07-29T08:53:03;1.15;;;0.82;;
22223;SDS011;11281;52.194;21.006;2022-07-29T08:57:06;2.00;;;0.93;;
22223;SDS011;11281;52.194;21.006;2022-07-29T09:01:08;2.17;;;1.15;;
22223;SDS011;11281;52.194;21.006;2022-07-29T09:05:14;2.80;;;1.23;;
22223;SDS011;11281;52.194;21.006;2022-07-29T09:09:16;1.65;;;0.93;;
22223;SDS011;11281;52.194;21.006;2022-07-29T09:13:18;2.05;;;0.88;;
22223;SDS011;11281;52.194;21.006;2022-07-29T09:17:38;4.57;;;0.82;;
22223;SDS011;11281;52.194;21.006;2022-07-29T09:21:50;3.33;;;1.05;;
22223;SDS011;11281;52.194;21.006;2022-07-29T09:30:08;1.55;;;0.70;;
22223;SDS011;11281;52.194;21.006;2022-07-29T09:34:12;1.75;;;0.90;;
22223;SDS011;11281;52.194;21.006;2022-07-29T09:38:16;0.88;;;0.70;;
22223;SDS011;11281;52.194;21.006;2022-07-29T09:42:27;2.22;;;0.90;;
22223;SDS011;11281;52.194;21.006;2022-07-29T09:46:30;1.60;;;1.00;;
22223;SDS011;11281;52.194;21.006;2022-07-29T09:50:38;1.63;;;0.52;;
22223;SDS011;11281;52.194;21.006;2022-07-29T09:54:41;3.33;;;0.90;;
22223;SDS011;11281;52.194;21.006;2022-07-29T09:58:43;3.13;;;0.77;;
22223;SDS011;11281;52.194;21.006;2022-07-29T10:02:46;3.30;;;0.80;;
22223;SDS011;11281;52.194;21.006;2022-07-29T10:06:58;1.08;;;0.70;;
22223;SDS011;11281;52.194;21.006;2022-07-29T10:11:09;1.65;;;0.90;;
22223;SDS011;11281;52.194;21.006;2022-07-29T10:15:15;1.02;;;0.70;;
22223;SDS011;11281;52.194;21.006;2022-07-29T10:19:17;1.20;;;0.80;;
22223;SDS011;11281;52.194;21.006;2022-07-29T10:23:19;5.25;;;1.08;;
22223;SDS011;11281;52.194;21.006;2022-07-29T10:27:21;3.65;;;0.90;;
22223;SDS011;11281;52.194;21.006;2022-07-29T10:31:26;4.18;;;1.02;;
22223;SDS011;11281;52.194;21.006;2022-07-29T10:40:17;1.20;;;0.75;;
22223;SDS011;11281;52.194;21.006;2022-07-29T10:44:54;2.00;;;0.90;;
22223;SDS011;11281;52.194;21.006;2022-07-29T10:49:07;1.45;;;0.80;;
22223;SDS011;11281;52.194;21.006;2022-07-29T10:53:16;2.95;;;1.20;;
22223;SDS011;11281;52.194;21.006;2022-07-29T10:57:25;3.17;;;1.00;;
22223;SDS011;11281;52.194;21.006;2022-07-29T11:01:33;1.23;;;0.73;;
22223;SDS011;11281;52.194;21.006;2022-07-29T11:14:13;7.57;;;1.93;;
22223;SDS011;11281;52.194;21.006;2022-07-29T11:18:15;2.25;;;0.90;;
22223;SDS011;11281;52.194;21.006;2022-07-29T11:22:38;10.15;;;1.60;;
22223;SDS011;11281;52.194;21.006;2022-07-29T11:26:39;3.08;;;0.90;;
22223;SDS011;11281;52.194;21.006;2022-07-29T11:30:48;2.58;;;0.93;;
22223;SDS011;11281;52.194;21.006;2022-07-29T11:39:27;2.08;;;0.80;;
22223;SDS011;11281;52.194;21.006;2022-07-29T11:43:48;2.03;;;0.75;;
22223;SDS011;11281;52.194;21.006;2022-07-29T11:48:01;1.33;;;0.90;;
22223;SDS011;11281;52.194;21.006;2022-07-29T11:52:04;2.50;;;0.93;;
22223;SDS011;11281;52.194;21.006;2022-07-29T11:56:10;2.92;;;1.10;;
22223;SDS011;11281;52.194;21.006;2022-07-29T12:04:51;2.38;;;0.98;;
22223;SDS011;11281;52.194;21.006;2022-07-29T12:08:54;0.57;;;0.52;;
22223;SDS011;11281;52.194;21.006;2022-07-29T12:12:56;1.17;;;0.60;;
22223;SDS011;11281;52.194;21.006;2022-07-29T12:16:58;2.15;;;0.75;;
22223;SDS011;11281;52.194;21.006;2022-07-29T12:21:01;1.80;;;0.85;;
22223;SDS011;11281;52.194;21.006;2022-07-29T12:25:09;1.88;;;0.85;;
22223;SDS011;11281;52.194;21.006;2022-07-29T12:29:15;1.98;;;0.80;;
22223;SDS011;11281;52.194;21.006;2022-07-29T12:33:24;1.73;;;0.68;;
22223;SDS011;11281;52.194;21.006;2022-07-29T12:37:29;2.65;;;0.73;;
22223;SDS011;11281;52.194;21.006;2022-07-29T12:41:30;1.88;;;0.90;;
22223;SDS011;11281;52.194;21.006;2022-07-29T12:45:32;1.55;;;0.90;;
22223;SDS011;11281;52.194;21.006;2022-07-29T12:49:34;2.50;;;0.68;;
22223;SDS011;11281;52.194;21.006;2022-07-29T12:53:36;2.38;;;0.75;;
22223;SDS011;11281;52.194;21.006;2022-07-29T12:57:47;1.13;;;0.52;;
22223;SDS011;11281;52.194;21.006;2022-07-29T13:01:53;1.00;;;0.70;;
22223;SDS011;11281;52.194;21.006;2022-07-29T13:05:58;2.58;;;0.80;;
22223;SDS011;11281;52.194;21.006;2022-07-29T13:14:31;1.23;;;0.85;;
22223;SDS011;11281;52.194;21.006;2022-07-29T13:18:36;3.90;;;0.90;;
22223;SDS011;11281;52.194;21.006;2022-07-29T13:22:38;1.38;;;0.88;;
22223;SDS011;11281;52.194;21.006;2022-07-29T13:26:41;2.17;;;1.00;;
22223;SDS011;11281;52.194;21.006;2022-07-29T13:30:43;3.30;;;1.17;;
22223;SDS011;11281;52.194;21.006;2022-07-29T13:34:44;1.48;;;0.70;;
22223;SDS011;11281;52.194;21.006;2022-07-29T13:38:46;1.63;;;0.55;;
22223;SDS011;11281;52.194;21.006;2022-07-29T13:42:48;2.50;;;1.08;;
22223;SDS011;11281;52.194;21.006;2022-07-29T13:46:50;2.63;;;0.93;;
22223;SDS011;11281;52.194;21.006;2022-07-29T13:50:52;2.20;;;0.90;;
22223;SDS011;11281;52.194;21.006;2022-07-29T13:54:53;1.90;;;0.73;;
22223;SDS011;11281;52.194;21.006;2022-07-29T13:58:55;1.90;;;0.90;;
22223;SDS011;11281;52.194;21.006;2022-07-29T14:02:58;4.10;;;0.77;;
22223;SDS011;11281;52.194;21.006;2022-07-29T14:06:59;3.90;;;0.95;;
22223;SDS011;11281;52.194;21.006;2022-07-29T14:11:02;6.63;;;1.23;;
22223;SDS011;11281;52.194;21.006;2022-07-29T14:15:04;2.65;;;1.92;;
22223;SDS011;11281;52.194;21.006;2022-07-29T14:19:06;1.67;;;1.20;;
22223;SDS011;11281;52.194;21.006;2022-07-29T14:23:08;3.42;;;1.08;;
22223;SDS011;11281;52.194;21.006;2022-07-29T14:27:10;4.45;;;2.10;;
22223;SDS011;11281;52.194;21.006;2022-07-29T14:31:12;5.03;;;2.45;;
22223;SDS011;11281;52.194;21.006;2022-07-29T14:35:14;3.97;;;1.20;;
22223;SDS011;11281;52.194;21.006;2022-07-29T14:39:16;1.42;;;0.80;;
22223;SDS011;11281;52.194;21.006;2022-07-29T14:43:18;2.05;;;1.00;;
22223;SDS011;11281;52.194;21.006;2022-07-29T14:47:19;2.17;;;0.90;;
22223;SDS011;11281;52.194;21.006;2022-07-29T14:51:23;2.30;;;0.90;;
22223;SDS011;11281;52.194;21.006;2022-07-29T14:55:25;1.38;;;0.80;;
22223;SDS011;11281;52.194;21.006;2022-07-29T14:59:27;0.88;;;0.88;;
22223;SDS011;11281;52.194;21.006;2022-07-29T15:03:29;2.38;;;0.73;;
22223;SDS011;11281;52.194;21.006;2022-07-29T15:07:30;2.22;;;1.13;;
22223;SDS011;11281;52.194;21.006;2022-07-29T15:11:33;2.08;;;1.05;;
22223;SDS011;11281;52.194;21.006;2022-07-29T15:15:34;2.67;;;1.27;;
22223;SDS011;11281;52.194;21.006;2022-07-29T15:19:35;1.98;;;0.90;;
22223;SDS011;11281;52.194;21.006;2022-07-29T15:23:37;2.13;;;0.80;;
22223;SDS011;11281;52.194;21.006;2022-07-29T15:27:39;1.75;;;0.77;;
22223;SDS011;11281;52.194;21.006;2022-07-29T15:31:40;2.33;;;0.95;;
22223;SDS011;11281;52.194;21.006;2022-07-29T15:35:43;1.65;;;0.60;;
22223;SDS011;11281;52.194;21.006;2022-07-29T15:39:44;1.35;;;0.60;;
22223;SDS011;11281;52.194;21.006;2022-07-29T15:43:46;0.60;;;0.55;;
22223;SDS011;11281;52.194;21.006;2022-07-29T15:47:49;2.15;;;0.90;;
22223;SDS011;11281;52.194;21.006;2022-07-29T15:51:50;1.30;;;0.85;;
22223;SDS011;11281;52.194;21.006;2022-07-29T15:55:52;1.08;;;0.70;;
22223;SDS011;11281;52.194;21.006;2022-07-29T15:59:54;1.42;;;0.73;;
22223;SDS011;11281;52.194;21.006;2022-07-29T16:03:56;1.63;;;0.90;;
22223;SDS011;11281;52.194;21.006;2022-07-29T16:07:58;2.55;;;1.02;;
22223;SDS011;11281;52.194;21.006;2022-07-29T16:12:00;3.35;;;1.00;;
22223;SDS011;11281;52.194;21.006;2022-07-29T16:16:03;2.03;;;1.05;;
22223;SDS011;11281;52.194;21.006;2022-07-29T16:20:05;1.52;;;1.10;;
22223;SDS011;11281;52.194;21.006;2022-07-29T16:24:07;4.38;;;1.50;;
22223;SDS011;11281;52.194;21.006;2022-07-29T16:28:09;3.22;;;0.88;;
22223;SDS011;11281;52.194;21.006;2022-07-29T16:32:11;3.58;;;1.00;;
22223;SDS011;11281;52.194;21.006;2022-07-29T16:36:13;2.58;;;0.93;;
22223;SDS011;11281;52.194;21.006;2022-07-29T16:40:17;5.72;;;0.90;;
22223;SDS011;11281;52.194;21.006;2022-07-29T16:44:18;2.15;;;1.13;;
22223;SDS011;11281;52.194;21.006;2022-07-29T16:48:20;1.58;;;0.93;;
22223;SDS011;11281;52.194;21.006;2022-07-29T16:52:22;3.55;;;1.02;;
22223;SDS011;11281;52.194;21.006;2022-07-29T16:56:24;1.75;;;1.00;;
22223;SDS011;11281;52.194;21.006;2022-07-29T17:00:25;1.38;;;0.70;;
22223;SDS011;11281;52.194;21.006;2022-07-29T17:04:27;2.35;;;1.20;;
22223;SDS011;11281;52.194;21.006;2022-07-29T17:08:30;1.83;;;1.20;;
22223;SDS011;11281;52.194;21.006;2022-07-29T17:12:35;1.77;;;0.85;;
22223;SDS011;11281;52.194;21.006;2022-07-29T17:16:38;1.85;;;1.10;;
22223;SDS011;11281;52.194;21.006;2022-07-29T17:20:40;1.08;;;0.90;;
22223;SDS011;11281;52.194;21.006;2022-07-29T17:24:42;1.60;;;1.50;;
22223;SDS011;11281;52.194;21.006;2022-07-29T17:28:45;3.97;;;1.15;;
22223;SDS011;11281;52.194;21.006;2022-07-29T17:32:48;1.90;;;1.23;;
22223;SDS011;11281;52.194;21.006;2022-07-29T17:36:50;2.40;;;1.23;;
22223;SDS011;11281;52.194;21.006;2022-07-29T17:40:58;1.48;;;0.90;;
22223;SDS011;11281;52.194;21.006;2022-07-29T17:44:59;2.65;;;1.10;;
22223;SDS011;11281;52.194;21.006;2022-07-29T17:49:01;1.25;;;1.10;;
22223;SDS011;11281;52.194;21.006;2022-07-29T17:53:02;2.63;;;1.10;;
22223;SDS011;11281;52.194;21.006;2022-07-29T17:57:04;1.48;;;1.00;;
22223;SDS011;11281;52.194;21.006;2022-07-29T18:01:06;2.15;;;1.10;;
22223;SDS011;11281;52.194;21.006;2022-07-29T18:05:07;2.70;;;1.10;;
22223;SDS011;11281;52.194;21.006;2022-07-29T18:09:09;4.60;;;1.67;;
22223;SDS011;11281;52.194;21.006;2022-07-29T18:13:11;1.80;;;0.88;;
22223;SDS011;11281;52.194;21.006;2022-07-29T18:17:13;1.75;;;1.15;;
22223;SDS011;11281;52.194;21.006;2022-07-29T18:21:15;4.10;;;1.50;;
22223;SDS011;11281;52.194;21.006;2022-07-29T18:25:17;2.67;;;1.17;;
22223;SDS011;11281;52.194;21.006;2022-07-29T18:29:19;5.47;;;1.42;;
22223;SDS011;11281;52.194;21.006;2022-07-29T18:33:21;1.98;;;1.30;;
22223;SDS011;11281;52.194;21.006;2022-07-29T18:37:23;2.80;;;1.52;;
22223;SDS011;11281;52.194;21.006;2022-07-29T18:41:25;2.35;;;1.58;;
22223;SDS011;11281;52.194;21.006;2022-07-29T18:45:27;2.42;;;1.40;;
22223;SDS011;11281;52.194;21.006;2022-07-29T18:49:28;2.30;;;1.23;;
22223;SDS011;11281;52.194;21.006;2022-07-29T18:53:30;2.20;;;1.42;;
22223;SDS011;11281;52.194;21.006;2022-07-29T18:57:31;3.05;;;1.45;;
22223;SDS011;11281;52.194;21.006;2022-07-29T19:01:33;3.40;;;1.55;;
22223;SDS011;11281;52.194;21.006;2022-07-29T19:05:36;2.75;;;1.25;;
22223;SDS011;11281;52.194;21.006;2022-07-29T19:09:37;2.03;;;1.45;;
22223;SDS011;11281;52.194;21.006;2022-07-29T19:13:39;2.22;;;1.20;;
22223;SDS011;11281;52.194;21.006;2022-07-29T19:17:41;2.65;;;1.55;;
22223;SDS011;11281;52.194;21.006;2022-07-29T19:21:43;3.85;;;1.60;;
22223;SDS011;11281;52.194;21.006;2022-07-29T19:25:44;3.70;;;1.95;;
22223;SDS011;11281;52.194;21.006;2022-07-29T19:29:46;3.45;;;1.83;;
22223;SDS011;11281;52.194;21.006;2022-07-29T19:33:48;6.07;;;2.67;;
22223;SDS011;11281;52.194;21.006;2022-07-29T19:37:50;4.20;;;2.42;;
22223;SDS011;11281;52.194;21.006;2022-07-29T19:41:52;7.25;;;2.50;;
22223;SDS011;11281;52.194;21.006;2022-07-29T19:45:56;4.90;;;2.40;;
22223;SDS011;11281;52.194;21.006;2022-07-29T19:49:58;2.92;;;2.13;;
22223;SDS011;11281;52.194;21.006;2022-07-29T19:54:00;4.35;;;1.95;;
22223;SDS011;11281;52.194;21.006;2022-07-29T19:58:02;2.78;;;1.98;;
22223;SDS011;11281;52.194;21.006;2022-07-29T20:02:07;6.35;;;1.92;;
22223;SDS011;11281;52.194;21.006;2022-07-29T20:06:12;4.53;;;1.98;;
22223;SDS011;11281;52.194;21.006;2022-07-29T20:10:14;6.13;;;2.15;;
22223;SDS011;11281;52.194;21.006;2022-07-29T20:14:16;4.90;;;2.00;;
22223;SDS011;11281;52.194;21.006;2022-07-29T20:18:17;6.63;;;1.73;;
22223;SDS011;11281;52.194;21.006;2022-07-29T20:22:19;2.63;;;1.48;;
22223;SDS011;11281;52.194;21.006;2022-07-29T20:26:21;6.65;;;1.80;;
22223;SDS011;11281;52.194;21.006;2022-07-29T20:30:24;3.60;;;1.70;;
22223;SDS011;11281;52.194;21.006;2022-07-29T20:34:25;1.92;;;1.73;;
22223;SDS011;11281;52.194;21.006;2022-07-29T20:38:27;2.63;;;1.80;;
22223;SDS011;11281;52.194;21.006;2022-07-29T20:42:30;3.47;;;1.65;;
22223;SDS011;11281;52.194;21.006;2022-07-29T20:46:31;2.33;;;1.42;;
22223;SDS011;11281;52.194;21.006;2022-07-29T20:50:33;3.08;;;1.40;;
22223;SDS011;11281;52.194;21.006;2022-07-29T20:54:35;2.20;;;1.52;;
22223;SDS011;11281;52.194;21.006;2022-07-29T20:58:37;3.60;;;1.70;;
22223;SDS011;11281;52.194;21.006;2022-07-29T21:02:40;5.03;;;1.70;;
22223;SDS011;11281;52.194;21.006;2022-07-29T21:06:42;2.50;;;1.42;;
22223;SDS011;11281;52.194;21.006;2022-07-29T21:10:45;1.45;;;1.35;;
22223;SDS011;11281;52.194;21.006;2022-07-29T21:14:49;1.33;;;1.20;;
22223;SDS011;11281;52.194;21.006;2022-07-29T21:18:51;2.88;;;1.63;;
22223;SDS011;11281;52.194;21.006;2022-07-29T21:22:55;3.42;;;1.70;;
22223;SDS011;11281;52.194;21.006;2022-07-29T21:26:58;4.38;;;1.70;;
22223;SDS011;11281;52.194;21.006;2022-07-29T21:31:18;1.65;;;1.40;;
22223;SDS011;11281;52.194;21.006;2022-07-29T21:35:23;4.57;;;1.63;;
22223;SDS011;11281;52.194;21.006;2022-07-29T21:39:25;4.57;;;1.60;;
22223;SDS011;11281;52.194;21.006;2022-07-29T21:43:29;1.90;;;1.38;;
22223;SDS011;11281;52.194;21.006;2022-07-29T21:47:32;3.58;;;1.45;;
22223;SDS011;11281;52.194;21.006;2022-07-29T21:51:34;8.60;;;1.60;;
22223;SDS011;11281;52.194;21.006;2022-07-29T21:55:39;2.70;;;1.30;;
22223;SDS011;11281;52.194;21.006;2022-07-29T21:59:43;1.70;;;1.30;;
22223;SDS011;11281;52.194;21.006;2022-07-29T22:03:45;4.40;;;1.33;;
22223;SDS011;11281;52.194;21.006;2022-07-29T22:07:47;1.13;;;1.02;;
22223;SDS011;11281;52.194;21.006;2022-07-29T22:11:52;2.45;;;1.17;;
22223;SDS011;11281;52.194;21.006;2022-07-29T22:15:55;2.10;;;1.33;;
22223;SDS011;11281;52.194;21.006;2022-07-29T22:19:58;1.98;;;1.48;;
22223;SDS011;11281;52.194;21.006;2022-07-29T22:24:01;1.25;;;1.08;;
22223;SDS011;11281;52.194;21.006;2022-07-29T22:28:05;1.42;;;1.27;;
22223;SDS011;11281;52.194;21.006;2022-07-29T22:32:07;1.83;;;1.30;;
22223;SDS011;11281;52.194;21.006;2022-07-29T22:36:09;2.25;;;1.33;;
22223;SDS011;11281;52.194;21.006;2022-07-29T22:40:13;2.83;;;1.33;;
22223;SDS011;11281;52.194;21.006;2022-07-29T22:44:15;1.73;;;1.23;;
22223;SDS011;11281;52.194;21.006;2022-07-29T22:48:17;3.85;;;1.50;;
22223;SDS011;11281;52.194;21.006;2022-07-29T22:52:26;1.48;;;1.20;;
22223;SDS011;11281;52.194;21.006;2022-07-29T22:56:27;2.95;;;1.65;;
22223;SDS011;11281;52.194;21.006;2022-07-29T23:00:32;1.38;;;1.27;;
22223;SDS011;11281;52.194;21.006;2022-07-29T23:04:34;2.97;;;1.45;;
22223;SDS011;11281;52.194;21.006;2022-07-29T23:08:37;2.28;;;1.50;;
22223;SDS011;11281;52.194;21.006;2022-07-29T23:12:38;2.30;;;1.38;;
22223;SDS011;11281;52.194;21.006;2022-07-29T23:16:48;2.50;;;1.20;;
22223;SDS011;11281;52.194;21.006;2022-07-29T23:20:49;3.78;;;1.30;;
22223;SDS011;11281;52.194;21.006;2022-07-29T23:24:52;2.25;;;1.20;;
22223;SDS011;11281;52.194;21.006;2022-07-29T23:28:55;1.55;;;1.30;;
22223;SDS011;11281;52.194;21.006;2022-07-29T23:32:57;7.43;;;1.58;;
22223;SDS011;11281;52.194;21.006;2022-07-29T23:36:58;4.05;;;1.42;;
22223;SDS011;11281;52.194;21.006;2022-07-29T23:41:00;1.27;;;1.10;;
22223;SDS011;11281;52.194;21.006;2022-07-29T23:45:02;3.10;;;1.10;;
22223;SDS011;11281;52.194;21.006;2022-07-29T23:49:04;2.15;;;0.90;;
22223;SDS011;11281;52.194;21.006;2022-07-29T23:53:06;2.00;;;1.25;;
22223;SDS011;11281;52.194;21.006;2022-07-29T23:57:08;2.40;;;1.42;;
